sensor_id;sensor_type;location;lat;lon;timestamp;P1;durP1;ratioP1;P2;durP2;ratioP2
5951;SDS011;3001;42.622;23.194;2023-11-21T00:01:40;0.00;;;0.00;;
5951;SDS011;3001;42.622;23.194;2023-11-21T00:04:06;0.00;;;0.00;;
5951;SDS011;3001;42.622;23.194;2023-11-21T00:06:34;0.10;;;0.10;;
5951;SDS011;3001;42.622;23.194;2023-11-21T00:09:01;0.00;;;0.00;;
5951;SDS011;3001;42.622;23.194;2023-11-21T00:11:28;0.00;;;0.00;;
5951;SDS011;3001;42.622;23.194;2023-11-21T00:13:55;0.00;;;0.00;;
5951;SDS011;3001;42.622;23.194;2023-11-21T00:16:22;0.00;;;0.00;;
5951;SDS011;3001;42.622;23.194;2023-11-21T00:18:50;0.00;;;0.00;;
5951;SDS011;3001;42.622;23.194;2023-11-21T00:21:17;0.00;;;0.00;;
5951;SDS011;3001;42.622;23.194;2023-11-21T00:23:45;0.00;;;0.00;;
5951;SDS011;3001;42.622;23.194;2023-11-21T00:26:11;0.00;;;0.00;;
5951;SDS011;3001;42.622;23.194;2023-11-21T00:28:39;0.00;;;0.00;;
5951;SDS011;3001;42.622;23.194;2023-11-21T00:31:06;0.00;;;0.00;;
5951;SDS011;3001;42.622;23.194;2023-11-21T00:33:33;0.00;;;0.00;;
5951;SDS011;3001;42.622;23.194;2023-11-21T00:36:00;0.00;;;0.00;;
5951;SDS011;3001;42.622;23.194;2023-11-21T00:38:26;0.00;;;0.00;;
5951;SDS011;3001;42.622;23.194;2023-11-21T00:40:54;0.00;;;0.00;;
5951;SDS011;3001;42.622;23.194;2023-11-21T00:43:21;0.00;;;0.00;;
5951;SDS011;3001;42.622;23.194;2023-11-21T00:45:48;0.00;;;0.00;;
5951;SDS011;3001;42.622;23.194;2023-11-21T00:48:15;0.00;;;0.00;;
5951;SDS011;3001;42.622;23.194;2023-11-21T00:50:41;0.00;;;0.00;;
5951;SDS011;3001;42.622;23.194;2023-11-21T00:53:08;0.07;;;0.07;;
5951;SDS011;3001;42.622;23.194;2023-11-21T00:55:36;0.10;;;0.10;;
5951;SDS011;3001;42.622;23.194;2023-11-21T00:58:06;0.00;;;0.00;;
5951;SDS011;3001;42.622;23.194;2023-11-21T01:00:33;0.00;;;0.00;;
5951;SDS011;3001;42.622;23.194;2023-11-21T01:02:59;0.00;;;0.00;;
5951;SDS011;3001;42.622;23.194;2023-11-21T01:05:27;0.00;;;0.00;;
5951;SDS011;3001;42.622;23.194;2023-11-21T01:07:54;0.00;;;0.00;;
5951;SDS011;3001;42.622;23.194;2023-11-21T01:10:21;0.00;;;0.00;;
5951;SDS011;3001;42.622;23.194;2023-11-21T01:12:48;0.00;;;0.00;;
5951;SDS011;3001;42.622;23.194;2023-11-21T01:15:16;0.00;;;0.00;;
5951;SDS011;3001;42.622;23.194;2023-11-21T01:17:42;0.00;;;0.00;;
5951;SDS011;3001;42.622;23.194;2023-11-21T01:20:09;0.00;;;0.00;;
5951;SDS011;3001;42.622;23.194;2023-11-21T01:22:37;0.00;;;0.00;;
5951;SDS011;3001;42.622;23.194;2023-11-21T01:25:04;0.00;;;0.00;;
5951;SDS011;3001;42.622;23.194;2023-11-21T01:27:32;0.00;;;0.00;;
5951;SDS011;3001;42.622;23.194;2023-11-21T01:29:59;0.00;;;0.00;;
5951;SDS011;3001;42.622;23.194;2023-11-21T01:32:27;0.00;;;0.00;;
5951;SDS011;3001;42.622;23.194;2023-11-21T01:34:55;0.00;;;0.00;;
5951;SDS011;3001;42.622;23.194;2023-11-21T01:37:22;0.00;;;0.00;;
5951;SDS011;3001;42.622;23.194;2023-11-21T01:39:49;0.00;;;0.00;;
5951;SDS011;3001;42.622;23.194;2023-11-21T01:42:16;0.00;;;0.00;;
5951;SDS011;3001;42.622;23.194;2023-11-21T01:44:43;0.00;;;0.00;;
5951;SDS011;3001;42.622;23.194;2023-11-21T01:47:11;0.00;;;0.00;;
5951;SDS011;3001;42.622;23.194;2023-11-21T01:49:40;0.00;;;0.00;;
5951;SDS011;3001;42.622;23.194;2023-11-21T01:52:10;0.00;;;0.00;;
5951;SDS011;3001;42.622;23.194;2023-11-21T01:54:38;0.00;;;0.00;;
5951;SDS011;3001;42.622;23.194;2023-11-21T01:57:05;0.00;;;0.00;;
5951;SDS011;3001;42.622;23.194;2023-11-21T01:59:33;0.00;;;0.00;;
5951;SDS011;3001;42.622;23.194;2023-11-21T02:02:01;0.00;;;0.00;;
5951;SDS011;3001;42.622;23.194;2023-11-21T02:04:30;0.00;;;0.00;;
5951;SDS011;3001;42.622;23.194;2023-11-21T02:06:59;0.00;;;0.00;;
5951;SDS011;3001;42.622;23.194;2023-11-21T02:09:26;0.00;;;0.00;;
5951;SDS011;3001;42.622;23.194;2023-11-21T02:11:53;0.00;;;0.00;;
5951;SDS011;3001;42.622;23.194;2023-11-21T02:14:20;0.00;;;0.00;;
5951;SDS011;3001;42.622;23.194;2023-11-21T02:16:48;0.00;;;0.00;;
5951;SDS011;3001;42.622;23.194;2023-11-21T02:19:16;0.10;;;0.10;;
5951;SDS011;3001;42.622;23.194;2023-11-21T02:21:45;0.00;;;0.00;;
5951;SDS011;3001;42.622;23.194;2023-11-21T02:24:14;0.00;;;0.00;;
5951;SDS011;3001;42.622;23.194;2023-11-21T02:26:42;0.00;;;0.00;;
5951;SDS011;3001;42.622;23.194;2023-11-21T02:29:09;0.20;;;0.20;;
5951;SDS011;3001;42.622;23.194;2023-11-21T02:31:37;0.00;;;0.00;;
5951;SDS011;3001;42.622;23.194;2023-11-21T02:34:12;0.00;;;0.00;;
5951;SDS011;3001;42.622;23.194;2023-11-21T02:36:39;0.00;;;0.00;;
5951;SDS011;3001;42.622;23.194;2023-11-21T02:39:07;0.00;;;0.00;;
5951;SDS011;3001;42.622;23.194;2023-11-21T02:41:35;0.00;;;0.00;;
5951;SDS011;3001;42.622;23.194;2023-11-21T02:44:03;0.00;;;0.00;;
5951;SDS011;3001;42.622;23.194;2023-11-21T02:46:31;0.00;;;0.00;;
5951;SDS011;3001;42.622;23.194;2023-11-21T02:48:58;0.00;;;0.00;;
5951;SDS011;3001;42.622;23.194;2023-11-21T02:51:25;0.00;;;0.00;;
5951;SDS011;3001;42.622;23.194;2023-11-21T02:53:52;0.00;;;0.00;;
5951;SDS011;3001;42.622;23.194;2023-11-21T02:56:19;0.00;;;0.00;;
5951;SDS011;3001;42.622;23.194;2023-11-21T02:58:47;0.00;;;0.00;;
5951;SDS011;3001;42.622;23.194;2023-11-21T03:01:14;0.00;;;0.00;;
5951;SDS011;3001;42.622;23.194;2023-11-21T03:03:40;0.00;;;0.00;;
5951;SDS011;3001;42.622;23.194;2023-11-21T03:06:07;0.00;;;0.00;;
5951;SDS011;3001;42.622;23.194;2023-11-21T03:08:34;0.00;;;0.00;;
5951;SDS011;3001;42.622;23.194;2023-11-21T03:11:01;0.00;;;0.00;;
5951;SDS011;3001;42.622;23.194;2023-11-21T03:13:29;0.00;;;0.00;;
5951;SDS011;3001;42.622;23.194;2023-11-21T03:15:57;0.00;;;0.00;;
5951;SDS011;3001;42.622;23.194;2023-11-21T03:18:23;0.00;;;0.00;;
5951;SDS011;3001;42.622;23.194;2023-11-21T03:20:51;0.00;;;0.00;;
5951;SDS011;3001;42.622;23.194;2023-11-21T03:23:18;0.00;;;0.00;;
5951;SDS011;3001;42.622;23.194;2023-11-21T03:25:45;0.00;;;0.00;;
5951;SDS011;3001;42.622;23.194;2023-11-21T03:28:11;0.00;;;0.00;;
5951;SDS011;3001;42.622;23.194;2023-11-21T03:30:38;0.00;;;0.00;;
5951;SDS011;3001;42.622;23.194;2023-11-21T03:33:06;0.00;;;0.00;;
5951;SDS011;3001;42.622;23.194;2023-11-21T03:35:33;0.00;;;0.00;;
5951;SDS011;3001;42.622;23.194;2023-11-21T03:38:00;0.00;;;0.00;;
5951;SDS011;3001;42.622;23.194;2023-11-21T03:40:26;0.00;;;0.00;;
5951;SDS011;3001;42.622;23.194;2023-11-21T03:42:53;0.53;;;0.53;;
5951;SDS011;3001;42.622;23.194;2023-11-21T03:45:20;0.00;;;0.00;;
5951;SDS011;3001;42.622;23.194;2023-11-21T03:47:46;0.00;;;0.00;;
5951;SDS011;3001;42.622;23.194;2023-11-21T03:50:14;0.00;;;0.00;;
5951;SDS011;3001;42.622;23.194;2023-11-21T03:52:41;0.00;;;0.00;;
5951;SDS011;3001;42.622;23.194;2023-11-21T03:55:08;0.00;;;0.00;;
5951;SDS011;3001;42.622;23.194;2023-11-21T03:57:35;0.33;;;0.33;;
5951;SDS011;3001;42.622;23.194;2023-11-21T04:00:02;0.00;;;0.00;;
5951;SDS011;3001;42.622;23.194;2023-11-21T04:02:33;0.00;;;0.00;;
5951;SDS011;3001;42.622;23.194;2023-11-21T04:05:00;0.00;;;0.00;;
5951;SDS011;3001;42.622;23.194;2023-11-21T04:07:28;0.00;;;0.00;;
5951;SDS011;3001;42.622;23.194;2023-11-21T04:09:55;0.00;;;0.00;;
5951;SDS011;3001;42.622;23.194;2023-11-21T04:12:21;0.00;;;0.00;;
5951;SDS011;3001;42.622;23.194;2023-11-21T04:14:48;0.00;;;0.00;;
5951;SDS011;3001;42.622;23.194;2023-11-21T04:17:17;0.20;;;0.20;;
5951;SDS011;3001;42.622;23.194;2023-11-21T04:19:44;0.00;;;0.00;;
5951;SDS011;3001;42.622;23.194;2023-11-21T04:22:11;0.00;;;0.00;;
5951;SDS011;3001;42.622;23.194;2023-11-21T04:24:39;0.00;;;0.00;;
5951;SDS011;3001;42.622;23.194;2023-11-21T04:27:05;0.20;;;0.20;;
5951;SDS011;3001;42.622;23.194;2023-11-21T04:29:33;0.00;;;0.00;;
5951;SDS011;3001;42.622;23.194;2023-11-21T04:32:00;0.00;;;0.00;;
5951;SDS011;3001;42.622;23.194;2023-11-21T04:34:27;0.00;;;0.00;;
5951;SDS011;3001;42.622;23.194;2023-11-21T04:36:56;0.00;;;0.00;;
5951;SDS011;3001;42.622;23.194;2023-11-21T04:39:22;0.00;;;0.00;;
5951;SDS011;3001;42.622;23.194;2023-11-21T04:41:51;0.00;;;0.00;;
5951;SDS011;3001;42.622;23.194;2023-11-21T04:44:17;0.30;;;0.30;;
5951;SDS011;3001;42.622;23.194;2023-11-21T04:46:44;0.00;;;0.00;;
5951;SDS011;3001;42.622;23.194;2023-11-21T04:49:11;0.00;;;0.00;;
5951;SDS011;3001;42.622;23.194;2023-11-21T04:51:37;0.00;;;0.00;;
5951;SDS011;3001;42.622;23.194;2023-11-21T04:54:04;0.00;;;0.00;;
5951;SDS011;3001;42.622;23.194;2023-11-21T04:56:31;0.00;;;0.00;;
5951;SDS011;3001;42.622;23.194;2023-11-21T04:58:59;0.00;;;0.00;;
5951;SDS011;3001;42.622;23.194;2023-11-21T05:01:26;0.00;;;0.00;;
5951;SDS011;3001;42.622;23.194;2023-11-21T05:03:53;0.00;;;0.00;;
5951;SDS011;3001;42.622;23.194;2023-11-21T05:06:20;0.00;;;0.00;;
5951;SDS011;3001;42.622;23.194;2023-11-21T05:08:47;0.00;;;0.00;;
5951;SDS011;3001;42.622;23.194;2023-11-21T05:11:22;0.00;;;0.00;;
5951;SDS011;3001;42.622;23.194;2023-11-21T05:13:50;0.00;;;0.00;;
5951;SDS011;3001;42.622;23.194;2023-11-21T05:16:18;0.00;;;0.00;;
5951;SDS011;3001;42.622;23.194;2023-11-21T05:18:45;0.00;;;0.00;;
5951;SDS011;3001;42.622;23.194;2023-11-21T05:21:12;0.00;;;0.00;;
5951;SDS011;3001;42.622;23.194;2023-11-21T05:23:38;0.00;;;0.00;;
5951;SDS011;3001;42.622;23.194;2023-11-21T05:26:05;0.00;;;0.00;;
5951;SDS011;3001;42.622;23.194;2023-11-21T05:28:32;0.00;;;0.00;;
5951;SDS011;3001;42.622;23.194;2023-11-21T05:30:59;0.00;;;0.00;;
5951;SDS011;3001;42.622;23.194;2023-11-21T05:33:28;0.30;;;0.30;;
5951;SDS011;3001;42.622;23.194;2023-11-21T05:35:54;0.00;;;0.00;;
5951;SDS011;3001;42.622;23.194;2023-11-21T05:38:21;0.00;;;0.00;;
5951;SDS011;3001;42.622;23.194;2023-11-21T05:40:48;0.00;;;0.00;;
5951;SDS011;3001;42.622;23.194;2023-11-21T05:43:15;0.00;;;0.00;;
5951;SDS011;3001;42.622;23.194;2023-11-21T05:45:41;0.00;;;0.00;;
5951;SDS011;3001;42.622;23.194;2023-11-21T05:48:08;0.10;;;0.10;;
5951;SDS011;3001;42.622;23.194;2023-11-21T05:50:36;0.00;;;0.00;;
5951;SDS011;3001;42.622;23.194;2023-11-21T05:53:03;0.00;;;0.00;;
5951;SDS011;3001;42.622;23.194;2023-11-21T05:55:30;0.00;;;0.00;;
5951;SDS011;3001;42.622;23.194;2023-11-21T05:57:57;0.00;;;0.00;;
5951;SDS011;3001;42.622;23.194;2023-11-21T06:00:23;0.00;;;0.00;;
5951;SDS011;3001;42.622;23.194;2023-11-21T06:02:52;0.00;;;0.00;;
5951;SDS011;3001;42.622;23.194;2023-11-21T06:05:21;0.00;;;0.00;;
5951;SDS011;3001;42.622;23.194;2023-11-21T06:07:50;0.00;;;0.00;;
5951;SDS011;3001;42.622;23.194;2023-11-21T06:10:19;0.00;;;0.00;;
5951;SDS011;3001;42.622;23.194;2023-11-21T06:12:47;0.00;;;0.00;;
5951;SDS011;3001;42.622;23.194;2023-11-21T06:15:14;0.00;;;0.00;;
5951;SDS011;3001;42.622;23.194;2023-11-21T06:17:42;0.00;;;0.00;;
5951;SDS011;3001;42.622;23.194;2023-11-21T06:20:09;0.00;;;0.00;;
5951;SDS011;3001;42.622;23.194;2023-11-21T06:22:39;0.00;;;0.00;;
5951;SDS011;3001;42.622;23.194;2023-11-21T06:25:09;0.00;;;0.00;;
5951;SDS011;3001;42.622;23.194;2023-11-21T06:27:38;0.33;;;0.33;;
5951;SDS011;3001;42.622;23.194;2023-11-21T06:30:06;0.00;;;0.00;;
5951;SDS011;3001;42.622;23.194;2023-11-21T06:32:34;0.20;;;0.20;;
5951;SDS011;3001;42.622;23.194;2023-11-21T06:35:02;0.00;;;0.00;;
5951;SDS011;3001;42.622;23.194;2023-11-21T06:37:29;0.00;;;0.00;;
5951;SDS011;3001;42.622;23.194;2023-11-21T06:39:57;0.10;;;0.10;;
5951;SDS011;3001;42.622;23.194;2023-11-21T06:42:25;0.10;;;0.10;;
5951;SDS011;3001;42.622;23.194;2023-11-21T06:44:54;0.00;;;0.00;;
5951;SDS011;3001;42.622;23.194;2023-11-21T06:47:22;0.00;;;0.00;;
5951;SDS011;3001;42.622;23.194;2023-11-21T06:49:50;0.00;;;0.00;;
5951;SDS011;3001;42.622;23.194;2023-11-21T06:52:17;0.00;;;0.00;;
5951;SDS011;3001;42.622;23.194;2023-11-21T06:54:44;0.00;;;0.00;;
5951;SDS011;3001;42.622;23.194;2023-11-21T06:57:12;0.20;;;0.20;;
5951;SDS011;3001;42.622;23.194;2023-11-21T06:59:40;0.20;;;0.20;;
5951;SDS011;3001;42.622;23.194;2023-11-21T07:02:07;0.20;;;0.20;;
5951;SDS011;3001;42.622;23.194;2023-11-21T07:04:34;0.87;;;0.87;;
5951;SDS011;3001;42.622;23.194;2023-11-21T07:07:01;1.60;;;1.50;;
5951;SDS011;3001;42.622;23.194;2023-11-21T07:09:28;0.00;;;0.00;;
5951;SDS011;3001;42.622;23.194;2023-11-21T07:11:56;0.17;;;0.17;;
5951;SDS011;3001;42.622;23.194;2023-11-21T07:14:22;0.30;;;0.30;;
5951;SDS011;3001;42.622;23.194;2023-11-21T07:16:50;0.00;;;0.00;;
5951;SDS011;3001;42.622;23.194;2023-11-21T07:19:17;0.00;;;0.00;;
5951;SDS011;3001;42.622;23.194;2023-11-21T07:21:44;0.47;;;0.47;;
5951;SDS011;3001;42.622;23.194;2023-11-21T07:24:11;0.10;;;0.10;;
5951;SDS011;3001;42.622;23.194;2023-11-21T07:26:38;0.23;;;0.23;;
5951;SDS011;3001;42.622;23.194;2023-11-21T07:29:05;0.00;;;0.00;;
5951;SDS011;3001;42.622;23.194;2023-11-21T07:31:32;0.00;;;0.00;;
5951;SDS011;3001;42.622;23.194;2023-11-21T07:34:01;0.40;;;0.40;;
5951;SDS011;3001;42.622;23.194;2023-11-21T07:36:28;1.00;;;1.00;;
5951;SDS011;3001;42.622;23.194;2023-11-21T07:38:55;2.93;;;1.97;;
5951;SDS011;3001;42.622;23.194;2023-11-21T07:41:21;1.50;;;1.27;;
5951;SDS011;3001;42.622;23.194;2023-11-21T07:43:48;1.17;;;1.10;;
5951;SDS011;3001;42.622;23.194;2023-11-21T07:46:15;0.63;;;0.63;;
5951;SDS011;3001;42.622;23.194;2023-11-21T07:48:42;1.43;;;1.33;;
5951;SDS011;3001;42.622;23.194;2023-11-21T07:51:10;1.87;;;1.77;;
5951;SDS011;3001;42.622;23.194;2023-11-21T07:53:38;2.07;;;1.13;;
5951;SDS011;3001;42.622;23.194;2023-11-21T07:56:05;1.10;;;1.10;;
5951;SDS011;3001;42.622;23.194;2023-11-21T07:58:33;0.00;;;0.00;;
5951;SDS011;3001;42.622;23.194;2023-11-21T08:01:00;0.00;;;0.00;;
5951;SDS011;3001;42.622;23.194;2023-11-21T08:03:27;1.83;;;1.73;;
5951;SDS011;3001;42.622;23.194;2023-11-21T08:05:55;1.17;;;1.00;;
5951;SDS011;3001;42.622;23.194;2023-11-21T08:08:24;2.03;;;1.93;;
5951;SDS011;3001;42.622;23.194;2023-11-21T08:10:51;1.73;;;1.50;;
5951;SDS011;3001;42.622;23.194;2023-11-21T08:13:21;3.80;;;1.87;;
5951;SDS011;3001;42.622;23.194;2023-11-21T08:15:48;0.50;;;0.50;;
5951;SDS011;3001;42.622;23.194;2023-11-21T08:18:15;0.73;;;0.73;;
5951;SDS011;3001;42.622;23.194;2023-11-21T08:20:42;0.40;;;0.40;;
5951;SDS011;3001;42.622;23.194;2023-11-21T08:23:13;0.00;;;0.00;;
5951;SDS011;3001;42.622;23.194;2023-11-21T08:25:42;0.00;;;0.00;;
5951;SDS011;3001;42.622;23.194;2023-11-21T08:28:09;0.20;;;0.20;;
5951;SDS011;3001;42.622;23.194;2023-11-21T08:30:36;0.07;;;0.07;;
5951;SDS011;3001;42.622;23.194;2023-11-21T08:33:03;0.30;;;0.30;;
5951;SDS011;3001;42.622;23.194;2023-11-21T08:35:30;0.30;;;0.30;;
5951;SDS011;3001;42.622;23.194;2023-11-21T08:37:57;0.33;;;0.30;;
5951;SDS011;3001;42.622;23.194;2023-11-21T08:40:24;0.77;;;0.77;;
5951;SDS011;3001;42.622;23.194;2023-11-21T08:42:52;0.20;;;0.20;;
5951;SDS011;3001;42.622;23.194;2023-11-21T08:45:20;0.37;;;0.37;;
5951;SDS011;3001;42.622;23.194;2023-11-21T08:47:47;0.20;;;0.20;;
5951;SDS011;3001;42.622;23.194;2023-11-21T08:50:14;0.53;;;0.53;;
5951;SDS011;3001;42.622;23.194;2023-11-21T08:52:41;0.17;;;0.17;;
5951;SDS011;3001;42.622;23.194;2023-11-21T08:55:08;0.40;;;0.40;;
5951;SDS011;3001;42.622;23.194;2023-11-21T08:57:37;0.20;;;0.20;;
5951;SDS011;3001;42.622;23.194;2023-11-21T09:00:07;0.00;;;0.00;;
5951;SDS011;3001;42.622;23.194;2023-11-21T09:02:36;0.80;;;0.80;;
5951;SDS011;3001;42.622;23.194;2023-11-21T09:05:04;0.50;;;0.50;;
5951;SDS011;3001;42.622;23.194;2023-11-21T09:07:31;0.87;;;0.87;;
5951;SDS011;3001;42.622;23.194;2023-11-21T09:09:58;1.50;;;0.80;;
5951;SDS011;3001;42.622;23.194;2023-11-21T09:12:25;1.17;;;0.67;;
5951;SDS011;3001;42.622;23.194;2023-11-21T09:14:51;0.93;;;0.30;;
5951;SDS011;3001;42.622;23.194;2023-11-21T09:17:19;0.13;;;0.13;;
5951;SDS011;3001;42.622;23.194;2023-11-21T09:19:46;0.57;;;0.57;;
5951;SDS011;3001;42.622;23.194;2023-11-21T09:22:16;0.60;;;0.60;;
5951;SDS011;3001;42.622;23.194;2023-11-21T09:24:43;0.67;;;0.67;;
5951;SDS011;3001;42.622;23.194;2023-11-21T09:27:10;1.33;;;1.00;;
5951;SDS011;3001;42.622;23.194;2023-11-21T09:29:37;1.17;;;0.90;;
5951;SDS011;3001;42.622;23.194;2023-11-21T09:32:04;0.67;;;0.67;;
5951;SDS011;3001;42.622;23.194;2023-11-21T09:34:34;0.80;;;0.80;;
5951;SDS011;3001;42.622;23.194;2023-11-21T09:37:03;0.40;;;0.40;;
5951;SDS011;3001;42.622;23.194;2023-11-21T09:39:31;1.23;;;1.13;;
5951;SDS011;3001;42.622;23.194;2023-11-21T09:42:00;0.57;;;0.57;;
5951;SDS011;3001;42.622;23.194;2023-11-21T09:44:35;1.53;;;0.57;;
5951;SDS011;3001;42.622;23.194;2023-11-21T09:47:07;0.63;;;0.63;;
5951;SDS011;3001;42.622;23.194;2023-11-21T09:49:38;0.50;;;0.50;;
5951;SDS011;3001;42.622;23.194;2023-11-21T09:52:05;1.10;;;1.10;;
5951;SDS011;3001;42.622;23.194;2023-11-21T09:54:40;2.57;;;1.40;;
5951;SDS011;3001;42.622;23.194;2023-11-21T09:57:07;1.27;;;1.27;;
5951;SDS011;3001;42.622;23.194;2023-11-21T09:59:34;1.13;;;1.13;;
5951;SDS011;3001;42.622;23.194;2023-11-21T10:02:03;0.33;;;0.33;;
5951;SDS011;3001;42.622;23.194;2023-11-21T10:04:30;0.87;;;0.87;;
5951;SDS011;3001;42.622;23.194;2023-11-21T10:06:59;3.20;;;1.13;;
5951;SDS011;3001;42.622;23.194;2023-11-21T10:09:26;0.93;;;0.80;;
5951;SDS011;3001;42.622;23.194;2023-11-21T10:11:53;0.30;;;0.30;;
5951;SDS011;3001;42.622;23.194;2023-11-21T10:14:22;0.30;;;0.30;;
5951;SDS011;3001;42.622;23.194;2023-11-21T10:16:54;0.00;;;0.00;;
5951;SDS011;3001;42.622;23.194;2023-11-21T10:19:22;0.93;;;0.30;;
5951;SDS011;3001;42.622;23.194;2023-11-21T10:21:49;0.40;;;0.40;;
5951;SDS011;3001;42.622;23.194;2023-11-21T10:24:19;0.30;;;0.30;;
5951;SDS011;3001;42.622;23.194;2023-11-21T10:26:45;0.20;;;0.20;;
5951;SDS011;3001;42.622;23.194;2023-11-21T10:29:14;0.77;;;0.77;;
5951;SDS011;3001;42.622;23.194;2023-11-21T10:31:41;0.63;;;0.63;;
5951;SDS011;3001;42.622;23.194;2023-11-21T10:34:13;0.10;;;0.10;;
5951;SDS011;3001;42.622;23.194;2023-11-21T10:36:41;0.83;;;0.83;;
5951;SDS011;3001;42.622;23.194;2023-11-21T10:39:07;0.03;;;0.03;;
5951;SDS011;3001;42.622;23.194;2023-11-21T10:41:36;0.60;;;0.53;;
5951;SDS011;3001;42.622;23.194;2023-11-21T10:44:05;0.43;;;0.43;;
5951;SDS011;3001;42.622;23.194;2023-11-21T10:46:34;0.07;;;0.07;;
5951;SDS011;3001;42.622;23.194;2023-11-21T10:49:01;0.10;;;0.10;;
5951;SDS011;3001;42.622;23.194;2023-11-21T10:51:27;0.00;;;0.00;;
5951;SDS011;3001;42.622;23.194;2023-11-21T10:53:54;0.10;;;0.10;;
5951;SDS011;3001;42.622;23.194;2023-11-21T10:56:23;1.00;;;1.00;;
5951;SDS011;3001;42.622;23.194;2023-11-21T10:58:53;0.40;;;0.40;;
5951;SDS011;3001;42.622;23.194;2023-11-21T11:01:20;0.10;;;0.10;;
5951;SDS011;3001;42.622;23.194;2023-11-21T11:03:50;0.40;;;0.40;;
5951;SDS011;3001;42.622;23.194;2023-11-21T11:06:20;0.73;;;0.30;;
5951;SDS011;3001;42.622;23.194;2023-11-21T11:08:47;0.30;;;0.30;;
5951;SDS011;3001;42.622;23.194;2023-11-21T11:11:16;0.20;;;0.20;;
5951;SDS011;3001;42.622;23.194;2023-11-21T11:13:43;0.20;;;0.20;;
5951;SDS011;3001;42.622;23.194;2023-11-21T11:16:13;0.20;;;0.20;;
5951;SDS011;3001;42.622;23.194;2023-11-21T11:18:42;0.10;;;0.10;;
5951;SDS011;3001;42.622;23.194;2023-11-21T11:21:11;0.10;;;0.10;;
5951;SDS011;3001;42.622;23.194;2023-11-21T11:23:51;0.57;;;0.57;;
5951;SDS011;3001;42.622;23.194;2023-11-21T11:26:36;0.10;;;0.10;;
5951;SDS011;3001;42.622;23.194;2023-11-21T11:29:10;0.00;;;0.00;;
5951;SDS011;3001;42.622;23.194;2023-11-21T11:31:49;0.17;;;0.17;;
5951;SDS011;3001;42.622;23.194;2023-11-21T11:34:26;0.37;;;0.37;;
5951;SDS011;3001;42.622;23.194;2023-11-21T11:36:59;0.20;;;0.20;;
5951;SDS011;3001;42.622;23.194;2023-11-21T11:39:29;0.87;;;0.87;;
5951;SDS011;3001;42.622;23.194;2023-11-21T11:41:57;0.43;;;0.43;;
5951;SDS011;3001;42.622;23.194;2023-11-21T11:47:19;0.10;;;0.10;;
5951;SDS011;3001;42.622;23.194;2023-11-21T11:50:00;0.00;;;0.00;;
5951;SDS011;3001;42.622;23.194;2023-11-21T11:52:32;1.07;;;0.40;;
5951;SDS011;3001;42.622;23.194;2023-11-21T11:55:04;0.10;;;0.10;;
5951;SDS011;3001;42.622;23.194;2023-11-21T11:57:32;0.00;;;0.00;;
5951;SDS011;3001;42.622;23.194;2023-11-21T12:00:10;0.10;;;0.10;;
5951;SDS011;3001;42.622;23.194;2023-11-21T12:02:43;0.10;;;0.10;;
5951;SDS011;3001;42.622;23.194;2023-11-21T12:05:12;0.07;;;0.07;;
5951;SDS011;3001;42.622;23.194;2023-11-21T12:07:41;0.30;;;0.30;;
5951;SDS011;3001;42.622;23.194;2023-11-21T12:10:11;0.20;;;0.20;;
5951;SDS011;3001;42.622;23.194;2023-11-21T12:12:41;0.20;;;0.20;;
5951;SDS011;3001;42.622;23.194;2023-11-21T12:15:10;0.20;;;0.20;;
5951;SDS011;3001;42.622;23.194;2023-11-21T12:17:37;0.43;;;0.43;;
5951;SDS011;3001;42.622;23.194;2023-11-21T12:20:06;0.00;;;0.00;;
5951;SDS011;3001;42.622;23.194;2023-11-21T12:22:41;0.20;;;0.20;;
5951;SDS011;3001;42.622;23.194;2023-11-21T12:25:09;0.37;;;0.37;;
5951;SDS011;3001;42.622;23.194;2023-11-21T12:27:40;0.20;;;0.20;;
5951;SDS011;3001;42.622;23.194;2023-11-21T12:30:07;0.20;;;0.20;;
5951;SDS011;3001;42.622;23.194;2023-11-21T12:32:38;0.20;;;0.20;;
5951;SDS011;3001;42.622;23.194;2023-11-21T12:35:07;0.20;;;0.20;;
5951;SDS011;3001;42.622;23.194;2023-11-21T12:37:35;1.10;;;0.30;;
5951;SDS011;3001;42.622;23.194;2023-11-21T12:40:03;0.10;;;0.10;;
5951;SDS011;3001;42.622;23.194;2023-11-21T12:42:30;0.00;;;0.00;;
5951;SDS011;3001;42.622;23.194;2023-11-21T12:45:08;0.30;;;0.23;;
5951;SDS011;3001;42.622;23.194;2023-11-21T12:47:40;0.57;;;0.57;;
5951;SDS011;3001;42.622;23.194;2023-11-21T12:50:09;0.23;;;0.23;;
5951;SDS011;3001;42.622;23.194;2023-11-21T12:52:40;0.40;;;0.40;;
5951;SDS011;3001;42.622;23.194;2023-11-21T12:55:09;0.73;;;0.73;;
5951;SDS011;3001;42.622;23.194;2023-11-21T12:57:40;0.20;;;0.20;;
5951;SDS011;3001;42.622;23.194;2023-11-21T13:00:09;1.40;;;0.43;;
5951;SDS011;3001;42.622;23.194;2023-11-21T13:02:50;0.20;;;0.20;;
5951;SDS011;3001;42.622;23.194;2023-11-21T13:05:24;0.00;;;0.00;;
5951;SDS011;3001;42.622;23.194;2023-11-21T13:07:53;0.40;;;0.40;;
5951;SDS011;3001;42.622;23.194;2023-11-21T13:10:22;0.70;;;0.70;;
5951;SDS011;3001;42.622;23.194;2023-11-21T13:12:52;1.93;;;0.77;;
5951;SDS011;3001;42.622;23.194;2023-11-21T13:15:20;0.10;;;0.10;;
5951;SDS011;3001;42.622;23.194;2023-11-21T13:17:47;1.07;;;0.60;;
5951;SDS011;3001;42.622;23.194;2023-11-21T13:20:15;0.77;;;0.77;;
5951;SDS011;3001;42.622;23.194;2023-11-21T13:22:47;1.87;;;0.80;;
5951;SDS011;3001;42.622;23.194;2023-11-21T13:25:15;0.20;;;0.20;;
5951;SDS011;3001;42.622;23.194;2023-11-21T13:27:43;0.30;;;0.30;;
5951;SDS011;3001;42.622;23.194;2023-11-21T13:30:11;0.90;;;0.90;;
5951;SDS011;3001;42.622;23.194;2023-11-21T13:32:41;0.57;;;0.57;;
5951;SDS011;3001;42.622;23.194;2023-11-21T13:35:08;0.70;;;0.70;;
5951;SDS011;3001;42.622;23.194;2023-11-21T13:37:48;0.33;;;0.33;;
5951;SDS011;3001;42.622;23.194;2023-11-21T13:40:19;0.30;;;0.30;;
5951;SDS011;3001;42.622;23.194;2023-11-21T13:42:48;0.30;;;0.30;;
5951;SDS011;3001;42.622;23.194;2023-11-21T13:45:18;0.60;;;0.60;;
5951;SDS011;3001;42.622;23.194;2023-11-21T13:47:48;2.63;;;1.77;;
5951;SDS011;3001;42.622;23.194;2023-11-21T13:50:16;2.67;;;1.40;;
5951;SDS011;3001;42.622;23.194;2023-11-21T13:52:49;2.03;;;1.90;;
5951;SDS011;3001;42.622;23.194;2023-11-21T13:55:18;1.30;;;1.30;;
5951;SDS011;3001;42.622;23.194;2023-11-21T13:57:45;0.47;;;0.47;;
5951;SDS011;3001;42.622;23.194;2023-11-21T14:00:15;1.00;;;0.83;;
5951;SDS011;3001;42.622;23.194;2023-11-21T14:03:10;3.83;;;0.73;;
5951;SDS011;3001;42.622;23.194;2023-11-21T14:05:43;1.60;;;0.30;;
5951;SDS011;3001;42.622;23.194;2023-11-21T14:08:12;0.50;;;0.50;;
5951;SDS011;3001;42.622;23.194;2023-11-21T14:10:45;1.13;;;0.83;;
5951;SDS011;3001;42.622;23.194;2023-11-21T14:13:15;0.30;;;0.30;;
5951;SDS011;3001;42.622;23.194;2023-11-21T14:15:43;0.10;;;0.10;;
5951;SDS011;3001;42.622;23.194;2023-11-21T14:18:12;0.30;;;0.30;;
5951;SDS011;3001;42.622;23.194;2023-11-21T14:20:42;0.20;;;0.20;;
5951;SDS011;3001;42.622;23.194;2023-11-21T14:23:09;0.30;;;0.30;;
5951;SDS011;3001;42.622;23.194;2023-11-21T14:25:37;0.53;;;0.53;;
5951;SDS011;3001;42.622;23.194;2023-11-21T14:28:04;0.27;;;0.27;;
5951;SDS011;3001;42.622;23.194;2023-11-21T14:30:31;0.77;;;0.77;;
5951;SDS011;3001;42.622;23.194;2023-11-21T14:33:00;0.30;;;0.30;;
5951;SDS011;3001;42.622;23.194;2023-11-21T14:35:29;0.40;;;0.20;;
5951;SDS011;3001;42.622;23.194;2023-11-21T14:37:57;0.40;;;0.40;;
5951;SDS011;3001;42.622;23.194;2023-11-21T14:40:25;0.00;;;0.00;;
5951;SDS011;3001;42.622;23.194;2023-11-21T14:42:58;0.43;;;0.43;;
5951;SDS011;3001;42.622;23.194;2023-11-21T14:45:25;0.20;;;0.20;;
5951;SDS011;3001;42.622;23.194;2023-11-21T14:47:52;0.90;;;0.90;;
5951;SDS011;3001;42.622;23.194;2023-11-21T14:50:29;0.50;;;0.50;;
5951;SDS011;3001;42.622;23.194;2023-11-21T14:53:14;0.33;;;0.33;;
5951;SDS011;3001;42.622;23.194;2023-11-21T14:55:40;0.50;;;0.50;;
5951;SDS011;3001;42.622;23.194;2023-11-21T14:58:19;0.17;;;0.17;;
5951;SDS011;3001;42.622;23.194;2023-11-21T15:00:51;0.93;;;0.40;;
5951;SDS011;3001;42.622;23.194;2023-11-21T15:03:23;0.10;;;0.10;;
5951;SDS011;3001;42.622;23.194;2023-11-21T15:06:09;0.30;;;0.30;;
5951;SDS011;3001;42.622;23.194;2023-11-21T15:08:48;0.50;;;0.50;;
5951;SDS011;3001;42.622;23.194;2023-11-21T15:11:18;0.20;;;0.20;;